SAS17 ESSA-EETN
Flight info
| Callsign | SAS17 |
|---|---|
| Flight time | N/A |
| Altitude | 31000 |
| Route | TOVRI N851 RIKUM DCT DOBAN |
| Aircraft | A20N/M-SDE2E3FGHIRWXY/LB1 |
Departure
| Time | 2026-05-05 18:45 |
|---|---|
| Airport | Stockholm-Arlanda Airport (ESSA) |
Arrival
| Time | N/A |
|---|---|
| Airport | Lennart Meri Tallinn Airport (EETN) |
| Time | Latitude | Longitude | Altitude | Speed | Heading |
|---|---|---|---|---|---|
| 2026-05-05 18:24 | 59.64739 | 17.92521 | 137 ft | 0 kts | 37° |
| 2026-05-05 18:35 | 59.64737 | 17.92518 | 137 ft | 1 kts | 37° |
| 2026-05-05 18:35 | 59.64731 | 17.92509 | 137 ft | 1 kts | 37° |
| 2026-05-05 18:36 | 59.64725 | 17.92500 | 137 ft | 1 kts | 28° |
| 2026-05-05 18:36 | 59.64718 | 17.92493 | 137 ft | 1 kts | 12° |
| 2026-05-05 18:36 | 59.64710 | 17.92490 | 137 ft | 1 kts | 356° |
| 2026-05-05 18:36 | 59.64703 | 17.92491 | 137 ft | 1 kts | 340° |
| 2026-05-05 18:37 | 59.64696 | 17.92497 | 137 ft | 1 kts | 321° |
| 2026-05-05 18:37 | 59.64691 | 17.92505 | 137 ft | 1 kts | 311° |
| 2026-05-05 18:37 | 59.64689 | 17.92509 | 137 ft | 1 kts | 305° |
| 2026-05-05 18:37 | 59.64686 | 17.92515 | 137 ft | 0 kts | 294° |
| 2026-05-05 18:38 | 59.64687 | 17.92515 | 137 ft | 0 kts | 294° |
| 2026-05-05 18:39 | 59.64697 | 17.92464 | 137 ft | 9 kts | 290° |
| 2026-05-05 18:39 | 59.64721 | 17.92305 | 137 ft | 15 kts | 286° |
| 2026-05-05 18:39 | 59.64758 | 17.92096 | 137 ft | 17 kts | 314° |
| 2026-05-05 18:40 | 59.64873 | 17.92102 | 138 ft | 18 kts | 11° |
| 2026-05-05 18:40 | 59.65002 | 17.92150 | 138 ft | 20 kts | 9° |
| 2026-05-05 18:40 | 59.65147 | 17.92199 | 138 ft | 22 kts | 10° |
| 2026-05-05 18:40 | 59.65300 | 17.92254 | 138 ft | 22 kts | 11° |
| 2026-05-05 18:41 | 59.65457 | 17.92314 | 138 ft | 24 kts | 10° |
| 2026-05-05 18:41 | 59.65626 | 17.92373 | 138 ft | 25 kts | 11° |
| 2026-05-05 18:41 | 59.65804 | 17.92439 | 138 ft | 27 kts | 10° |
| 2026-05-05 18:41 | 59.65990 | 17.92505 | 138 ft | 28 kts | 10° |
| 2026-05-05 18:42 | 59.66183 | 17.92575 | 138 ft | 29 kts | 10° |
| 2026-05-05 18:42 | 59.66383 | 17.92648 | 138 ft | 27 kts | 8° |
| 2026-05-05 18:42 | 59.66510 | 17.92623 | 138 ft | 19 kts | 337° |
| 2026-05-05 18:42 | 59.66544 | 17.92599 | 138 ft | 2 kts | 341° |
| 2026-05-05 18:43 | 59.66570 | 17.92581 | 138 ft | 6 kts | 341° |
| 2026-05-05 18:43 | 59.66610 | 17.92533 | 139 ft | 8 kts | 310° |
| 2026-05-05 18:43 | 59.66621 | 17.92429 | 141 ft | 8 kts | 275° |
| 2026-05-05 18:43 | 59.66591 | 17.92360 | 141 ft | 9 kts | 193° |
| 2026-05-05 18:44 | 59.66581 | 17.92356 | 141 ft | 0 kts | 191° |
| 2026-05-05 18:44 | 59.66580 | 17.92355 | 141 ft | 2 kts | 191° |
| 2026-05-05 18:44 | 59.66377 | 17.92280 | 142 ft | 67 kts | 190° |
| 2026-05-05 18:45 | 59.65690 | 17.92032 | 143 ft | 130 kts | 190° |
| 2026-05-05 18:45 | 59.64655 | 17.91654 | 326 ft | 158 kts | 191° |
| 2026-05-05 18:45 | 59.63607 | 17.91285 | 1040 ft | 152 kts | 191° |
| 2026-05-05 18:45 | 59.62562 | 17.90940 | 1703 ft | 153 kts | 191° |
| 2026-05-05 18:46 | 59.61439 | 17.90583 | 2228 ft | 177 kts | 192° |
| 2026-05-05 18:46 | 59.60146 | 17.90179 | 2844 ft | 200 kts | 192° |
| 2026-05-05 18:46 | 59.58687 | 17.89728 | 3504 ft | 224 kts | 192° |
| 2026-05-05 18:46 | 59.57115 | 17.89400 | 4448 ft | 230 kts | 180° |
| 2026-05-05 18:47 | 59.55621 | 17.90257 | 5887 ft | 227 kts | 153° |
| 2026-05-05 18:47 | 59.54458 | 17.92404 | 6886 ft | 236 kts | 127° |
| 2026-05-05 18:47 | 59.53714 | 17.95361 | 7765 ft | 247 kts | 102° |
| 2026-05-05 18:47 | 59.53750 | 17.98738 | 8774 ft | 249 kts | 72° |
| 2026-05-05 18:48 | 59.54540 | 18.01722 | 9793 ft | 247 kts | 43° |
| 2026-05-05 18:48 | 59.55830 | 18.04022 | 10542 ft | 260 kts | 37° |
| 2026-05-05 18:48 | 59.57258 | 18.06463 | 11044 ft | 283 kts | 37° |
| 2026-05-05 18:48 | 59.58808 | 18.09148 | 11487 ft | 309 kts | 37° |
| 2026-05-05 18:49 | 59.60430 | 18.12106 | 12157 ft | 325 kts | 44° |
| 2026-05-05 18:49 | 59.61752 | 18.15793 | 13012 ft | 339 kts | 60° |
| 2026-05-05 18:49 | 59.62625 | 18.20192 | 13828 ft | 350 kts | 70° |
| 2026-05-05 18:49 | 59.63420 | 18.24819 | 14478 ft | 362 kts | 70° |
| 2026-05-05 18:50 | 59.64246 | 18.29592 | 15113 ft | 375 kts | 70° |
| 2026-05-05 18:50 | 59.65119 | 18.34593 | 15557 ft | 392 kts | 69° |
| 2026-05-05 18:50 | 59.66020 | 18.39755 | 16201 ft | 403 kts | 69° |
| 2026-05-05 18:50 | 59.66945 | 18.45059 | 16849 ft | 413 kts | 70° |
| 2026-05-05 18:51 | 59.67894 | 18.50513 | 17481 ft | 424 kts | 69° |
| 2026-05-05 18:51 | 59.69083 | 18.55817 | 18097 ft | 430 kts | 57° |
| 2026-05-05 18:51 | 59.70564 | 18.61006 | 18766 ft | 434 kts | 57° |
| 2026-05-05 18:51 | 59.72049 | 18.66233 | 19573 ft | 436 kts | 57° |
| 2026-05-05 18:52 | 59.73544 | 18.71526 | 20190 ft | 443 kts | 57° |
| 2026-05-05 18:52 | 59.75067 | 18.76848 | 20919 ft | 444 kts | 54° |
| 2026-05-05 18:52 | 59.76812 | 18.81914 | 21621 ft | 446 kts | 51° |
| 2026-05-05 18:52 | 59.78588 | 18.86992 | 22308 ft | 450 kts | 51° |
| 2026-05-05 18:53 | 59.80376 | 18.92127 | 23010 ft | 453 kts | 51° |
| 2026-05-05 18:53 | 59.82175 | 18.97309 | 23653 ft | 457 kts | 51° |
| 2026-05-05 18:53 | 59.83981 | 19.02528 | 24215 ft | 460 kts | 51° |
| 2026-05-05 18:53 | 59.85802 | 19.07802 | 24771 ft | 464 kts | 52° |
| 2026-05-05 18:54 | 59.87634 | 19.13122 | 25304 ft | 467 kts | 52° |
| 2026-05-05 18:54 | 59.89475 | 19.18479 | 25844 ft | 470 kts | 52° |
| 2026-05-05 18:54 | 59.91305 | 19.23816 | 26355 ft | 474 kts | 52° |
| 2026-05-05 18:54 | 59.93173 | 19.29275 | 26919 ft | 479 kts | 52° |
| 2026-05-05 18:55 | 59.95054 | 19.34831 | 27258 ft | 487 kts | 55° |
| 2026-05-05 18:55 | 59.96528 | 19.40950 | 27796 ft | 492 kts | 71° |
| 2026-05-05 18:55 | 59.97292 | 19.47617 | 28263 ft | 494 kts | 86° |
| 2026-05-05 18:55 | 59.97361 | 19.54464 | 28644 ft | 494 kts | 97° |
| 2026-05-05 18:56 | 59.97114 | 19.61299 | 28750 ft | 493 kts | 99° |
| 2026-05-05 18:56 | 59.96836 | 19.68122 | 28857 ft | 493 kts | 98° |
| 2026-05-05 18:56 | 59.96436 | 19.81822 | 28880 ft | 495 kts | 96° |
| 2026-05-05 18:57 | 59.96161 | 19.95555 | 28879 ft | 495 kts | 96° |
| 2026-05-05 18:57 | 59.95899 | 20.09275 | 28878 ft | 495 kts | 96° |
| 2026-05-05 18:58 | 59.95620 | 20.22993 | 28830 ft | 494 kts | 96° |
| 2026-05-05 18:58 | 59.95332 | 20.36515 | 28871 ft | 491 kts | 97° |
| 2026-05-05 18:59 | 59.95022 | 20.50164 | 28867 ft | 491 kts | 97° |
| 2026-05-05 18:59 | 59.94702 | 20.63742 | 28866 ft | 491 kts | 97° |
| 2026-05-05 19:00 | 59.94367 | 20.77361 | 28866 ft | 491 kts | 97° |
| 2026-05-05 19:00 | 59.94019 | 20.90929 | 28864 ft | 491 kts | 97° |
| 2026-05-05 19:01 | 59.93658 | 21.04512 | 28864 ft | 489 kts | 98° |
| 2026-05-05 19:01 | 59.93283 | 21.17986 | 28867 ft | 490 kts | 98° |
| 2026-05-05 19:02 | 59.92894 | 21.31542 | 28865 ft | 490 kts | 98° |
| 2026-05-05 19:02 | 59.92490 | 21.45117 | 28865 ft | 489 kts | 98° |
| 2026-05-05 19:03 | 59.92072 | 21.58684 | 28864 ft | 489 kts | 98° |
| 2026-05-05 19:03 | 59.91635 | 21.72308 | 28863 ft | 503 kts | 98° |
| 2026-05-05 19:04 | 59.91400 | 21.79368 | 28862 ft | 515 kts | 98° |
| 2026-05-05 19:04 | 59.91163 | 21.86507 | 28862 ft | 517 kts | 98° |
| 2026-05-05 19:04 | 59.90683 | 22.00783 | 28860 ft | 516 kts | 98° |
| 2026-05-05 19:05 | 59.90188 | 22.14964 | 28862 ft | 516 kts | 99° |
| 2026-05-05 19:05 | 59.90026 | 22.19482 | 28859 ft | 516 kts | 99° |